createdAt,value
2023-03-20T00:02:10.784Z,66.21
2023-03-20T00:07:12.631Z,66.16
2023-03-20T00:12:17.852Z,65.86
2023-03-20T00:17:20.849Z,66.26
2023-03-20T00:22:22.465Z,66.20
2023-03-20T00:27:23.855Z,66.74
2023-03-20T00:32:25.454Z,66.17
2023-03-20T00:37:28.034Z,66.05
2023-03-20T00:42:29.405Z,65.47
2023-03-20T00:47:36.658Z,65.90
2023-03-20T00:52:37.990Z,65.66
2023-03-20T00:57:44.159Z,66.10
2023-03-20T01:02:45.871Z,66.12
2023-03-20T01:07:47.993Z,66.20
2023-03-20T01:12:49.415Z,66.42
2023-03-20T01:17:52.825Z,66.08
2023-03-20T01:22:54.539Z,66.63
2023-03-20T01:27:57.861Z,66.32
2023-03-20T01:33:00.875Z,66.70
2023-03-20T01:38:02.207Z,67.04
2023-03-20T01:43:03.679Z,66.79
2023-03-20T01:48:19.397Z,66.94
2023-03-20T01:53:24.838Z,67.19
2023-03-20T01:58:32.912Z,66.92
2023-03-20T02:03:34.556Z,67.15
2023-03-20T02:08:48.573Z,67.00
2023-03-20T02:13:52.849Z,66.93
2023-03-20T02:18:56.318Z,66.95
2023-03-20T02:24:10.114Z,67.65
2023-03-20T02:29:29.445Z,67.72
2023-03-20T02:34:49.555Z,67.68
2023-03-20T02:40:14.830Z,67.59
2023-03-20T02:45:18.826Z,67.68
2023-03-20T02:50:31.914Z,67.85
2023-03-20T02:55:43.988Z,67.67
2023-03-20T03:00:49.130Z,67.37
2023-03-20T03:06:01.518Z,67.52
2023-03-20T03:11:08.665Z,67.60
2023-03-20T03:16:16.292Z,67.44
2023-03-20T03:21:18.693Z,67.11
2023-03-20T03:26:27.693Z,67.42
2023-03-20T03:31:30.619Z,67.68
2023-03-20T03:37:03.883Z,67.86
2023-03-20T03:42:19.149Z,67.40
2023-03-20T03:47:30.927Z,67.75
2023-03-20T03:52:34.542Z,67.60
2023-03-20T03:58:09.999Z,67.98
2023-03-20T04:03:12.547Z,67.75
2023-03-20T04:08:16.188Z,67.80
2023-03-20T04:13:17.566Z,67.78
2023-03-20T04:18:19.601Z,67.56
2023-03-20T04:23:20.992Z,67.73
2023-03-20T04:28:22.375Z,67.64
2023-03-20T04:33:24.789Z,66.99
2023-03-20T04:38:26.211Z,67.12
2023-03-20T04:43:27.557Z,66.97
2023-03-20T04:48:29.030Z,67.46
2023-03-20T04:53:30.397Z,67.44
2023-03-20T04:58:31.803Z,67.19
2023-03-20T05:03:33.365Z,67.26
2023-03-20T05:08:34.748Z,67.79
2023-03-20T05:13:36.172Z,67.36
2023-03-20T05:18:37.509Z,67.55
2023-03-20T05:23:39.035Z,67.09
2023-03-20T05:28:40.407Z,67.42
2023-03-20T05:33:41.774Z,67.03
2023-03-20T05:38:43.126Z,66.84
2023-03-20T05:43:44.477Z,66.86
2023-03-20T05:48:45.926Z,67.08
2023-03-20T05:53:47.259Z,66.81
2023-03-20T05:58:48.735Z,66.55
2023-03-20T06:03:50.825Z,66.57
2023-03-20T06:08:52.240Z,66.52
2023-03-20T06:13:55.607Z,66.74
2023-03-20T06:18:57.014Z,66.48
2023-03-20T06:23:59.906Z,66.20
2023-03-20T06:29:01.645Z,66.65
2023-03-20T06:34:03.344Z,66.50
2023-03-20T06:39:04.816Z,66.21
2023-03-20T06:44:06.603Z,66.17
2023-03-20T06:49:08.139Z,66.16
2023-03-20T06:54:09.518Z,65.94
2023-03-20T06:59:10.882Z,66.29
2023-03-20T07:04:12.264Z,66.50
2023-03-20T07:09:13.638Z,66.80
2023-03-20T07:14:15.264Z,66.58
2023-03-20T07:19:17.379Z,66.95
2023-03-20T07:24:19.078Z,66.44
2023-03-20T07:29:20.564Z,66.52
2023-03-20T07:34:22.632Z,66.42
2023-03-20T07:39:24.149Z,66.54
2023-03-20T07:44:25.647Z,66.51
2023-03-20T07:49:26.974Z,66.48
2023-03-20T07:54:28.347Z,66.05
2023-03-20T07:59:29.684Z,65.84
2023-03-20T08:04:31.186Z,65.79
2023-03-20T08:09:32.963Z,65.36
2023-03-20T08:14:34.666Z,64.86
2023-03-20T08:19:36.391Z,64.96
2023-03-20T08:24:37.786Z,64.34
2023-03-20T08:29:39.202Z,64.12
2023-03-20T08:34:40.568Z,63.55
2023-03-20T08:39:41.897Z,63.14
2023-03-20T08:44:43.343Z,62.83
2023-03-20T08:49:44.782Z,62.61
2023-03-20T08:54:46.457Z,61.99
2023-03-20T08:59:47.771Z,61.65
2023-03-20T09:04:49.123Z,61.87
2023-03-20T09:09:50.759Z,61.44
2023-03-20T09:14:52.134Z,61.12
2023-03-20T09:19:53.484Z,61.30
2023-03-20T09:24:54.881Z,61.08
2023-03-20T09:29:56.231Z,61.17
2023-03-20T09:34:57.696Z,60.52
2023-03-20T09:39:59.085Z,59.92
2023-03-20T09:45:14.356Z,60.04
2023-03-20T09:50:28.285Z,60.02
2023-03-20T09:55:38.434Z,60.15
2023-03-20T10:00:44.330Z,59.95
2023-03-20T10:05:59.506Z,60.05
2023-03-20T10:11:25.548Z,59.83
2023-03-20T10:16:45.106Z,59.95
2023-03-20T10:21:49.548Z,60.14
2023-03-20T10:26:53.466Z,59.68
2023-03-20T10:32:05.209Z,59.25
2023-03-20T10:37:25.262Z,58.64
2023-03-20T10:42:37.685Z,58.00
2023-03-20T10:47:45.167Z,57.42
2023-03-20T10:52:49.469Z,57.27
2023-03-20T10:57:55.500Z,57.32
2023-03-20T11:02:56.934Z,57.53
2023-03-20T11:08:03.019Z,56.97
2023-03-20T11:13:25.050Z,55.81
2023-03-20T11:18:26.613Z,55.33
2023-03-20T11:23:32.368Z,54.92
2023-03-20T11:28:42.152Z,54.47
2023-03-20T11:33:46.343Z,53.79
2023-03-20T11:38:49.913Z,54.01
2023-03-20T11:43:51.396Z,53.37
2023-03-20T11:49:15.980Z,52.50
2023-03-20T11:54:22.257Z,52.07
2023-03-20T12:21:58.730Z,51.25
2023-03-20T12:27:29.533Z,51.27
2023-03-20T12:33:06.984Z,51.30
2023-03-20T12:38:20.035Z,51.52
2023-03-20T12:43:35.413Z,51.45
2023-03-20T12:48:59.303Z,51.30
2023-03-20T12:54:09.203Z,51.29
2023-03-20T12:59:36.974Z,50.94
2023-03-20T13:05:02.633Z,50.48
2023-03-20T13:39:26.920Z,45.68
2023-03-20T13:44:38.961Z,45.26
2023-03-20T13:50:15.940Z,44.16
2023-03-20T14:17:16.500Z,42.83
2023-03-20T14:22:34.751Z,42.54
2023-03-20T15:09:26.174Z,42.42
2023-03-20T15:14:13.411Z,42.43
2023-03-20T15:19:25.112Z,42.23
2023-03-20T15:24:33.927Z,41.65
2023-03-20T15:36:22.000Z,41.50
2023-03-20T15:41:34.241Z,41.17
2023-03-20T15:46:36.668Z,42.10
2023-03-20T15:51:38.127Z,43.18
2023-03-20T15:56:43.084Z,44.46
2023-03-20T16:01:47.378Z,45.21
2023-03-20T16:06:53.150Z,45.12
2023-03-20T16:12:00.276Z,44.81
2023-03-20T16:17:04.937Z,44.20
2023-03-20T16:22:18.685Z,43.52
2023-03-20T16:27:25.655Z,42.87
2023-03-20T16:32:39.720Z,42.04
2023-03-20T16:37:52.613Z,41.28
2023-03-20T16:42:56.351Z,40.92
2023-03-20T16:48:23.759Z,40.32
2023-03-20T16:53:28.740Z,39.79
2023-03-20T16:58:33.203Z,39.66
2023-03-20T17:03:50.884Z,39.77
2023-03-20T17:09:00.969Z,39.54
2023-03-20T17:14:04.241Z,39.04
2023-03-20T17:19:18.091Z,39.21
2023-03-20T17:24:19.471Z,39.65
2023-03-20T17:29:20.953Z,39.52
2023-03-20T17:34:22.584Z,39.65
2023-03-20T17:39:24.784Z,39.91
2023-03-20T17:44:26.384Z,40.16
2023-03-20T17:49:28.337Z,40.47
2023-03-20T17:54:29.913Z,41.06
2023-03-20T17:59:31.472Z,40.96
2023-03-20T18:04:34.033Z,41.90
2023-03-20T18:09:35.632Z,42.40
2023-03-20T18:14:37.386Z,42.56
2023-03-20T18:19:39.127Z,42.86
2023-03-20T18:24:43.310Z,43.17
2023-03-20T18:29:45.570Z,43.20
2023-03-20T18:34:46.968Z,43.85
2023-03-20T18:39:48.345Z,43.83
2023-03-20T18:44:49.682Z,44.67
2023-03-20T18:49:51.115Z,44.44
2023-03-20T18:54:52.467Z,44.89
2023-03-20T18:59:53.789Z,45.23
2023-03-20T19:04:55.160Z,45.51
2023-03-20T19:09:56.482Z,45.84
2023-03-20T19:14:57.853Z,45.95
2023-03-20T19:19:59.196Z,45.83
2023-03-20T19:25:00.725Z,45.73
2023-03-20T19:30:02.376Z,46.09
2023-03-20T19:35:43.577Z,45.84
2023-03-20T19:40:34.451Z,46.02
2023-03-20T19:45:38.416Z,46.22
2023-03-20T19:50:41.688Z,46.30
2023-03-20T19:55:46.474Z,46.38
2023-03-20T20:01:11.152Z,46.55
2023-03-20T20:06:12.339Z,46.25
2023-03-20T20:11:15.305Z,46.51
2023-03-20T20:16:16.721Z,46.84
2023-03-20T20:26:47.908Z,46.76
2023-03-20T20:31:54.473Z,47.29
2023-03-20T20:42:17.553Z,47.11
2023-03-20T20:47:18.952Z,47.80
2023-03-20T20:52:20.431Z,47.80
2023-03-20T20:57:21.844Z,47.63
2023-03-20T21:02:23.260Z,48.22
2023-03-20T21:07:25.606Z,47.83
2023-03-20T21:12:38.095Z,48.27
2023-03-20T21:17:53.860Z,48.47
2023-03-20T21:23:00.968Z,48.11
2023-03-20T21:28:02.308Z,48.80
2023-03-20T21:33:03.835Z,48.61
2023-03-20T21:38:47.660Z,48.88
2023-03-20T21:43:27.139Z,49.09
2023-03-20T21:49:29.960Z,49.35
2023-03-20T21:59:50.451Z,50.25
2023-03-20T22:15:54.280Z,50.81
2023-03-20T22:27:05.301Z,51.02
2023-03-20T22:37:35.412Z,51.46
2023-03-20T22:47:30.610Z,52.10
2023-03-20T22:52:45.925Z,52.47
2023-03-20T22:58:03.835Z,52.15
2023-03-20T23:03:39.825Z,52.50
2023-03-20T23:08:29.638Z,52.30
2023-03-20T23:13:32.649Z,52.77
2023-03-20T23:18:34.029Z,52.90
2023-03-20T23:23:35.789Z,53.11
2023-03-20T23:28:38.508Z,53.26
2023-03-20T23:33:39.934Z,53.48
2023-03-20T23:38:41.412Z,53.48
2023-03-20T23:43:42.963Z,53.56
2023-03-20T23:48:44.297Z,54.00
2023-03-20T23:53:45.803Z,54.00
2023-03-20T23:58:55.560Z,54.07
